sensor_id;sensor_type;location;lat;lon;timestamp;temperature;humidity
24636;DHT22;12772;49.794;10.024;2023-07-31T00:02:47;20.80;42.10
24636;DHT22;12772;49.794;10.024;2023-07-31T00:06:49;20.80;42.10
24636;DHT22;12772;49.794;10.024;2023-07-31T00:10:52;20.80;42.10
24636;DHT22;12772;49.794;10.024;2023-07-31T00:14:54;20.90;42.20
24636;DHT22;12772;49.794;10.024;2023-07-31T00:18:56;20.90;42.20
24636;DHT22;12772;49.794;10.024;2023-07-31T00:22:58;20.90;42.20
24636;DHT22;12772;49.794;10.024;2023-07-31T00:27:00;20.90;42.20
24636;DHT22;12772;49.794;10.024;2023-07-31T00:31:02;20.90;42.20
24636;DHT22;12772;49.794;10.024;2023-07-31T00:35:05;20.80;42.10
24636;DHT22;12772;49.794;10.024;2023-07-31T00:39:07;20.90;42.20
24636;DHT22;12772;49.794;10.024;2023-07-31T00:43:09;20.90;42.30
24636;DHT22;12772;49.794;10.024;2023-07-31T00:47:11;20.90;42.20
24636;DHT22;12772;49.794;10.024;2023-07-31T00:51:13;20.80;42.10
24636;DHT22;12772;49.794;10.024;2023-07-31T00:55:16;20.80;42.10
24636;DHT22;12772;49.794;10.024;2023-07-31T00:59:18;20.80;42.10
24636;DHT22;12772;49.794;10.024;2023-07-31T01:03:20;20.80;42.20
24636;DHT22;12772;49.794;10.024;2023-07-31T01:07:31;20.70;42.00
24636;DHT22;12772;49.794;10.024;2023-07-31T01:11:38;20.70;42.00
24636;DHT22;12772;49.794;10.024;2023-07-31T01:15:44;20.70;42.00
24636;DHT22;12772;49.794;10.024;2023-07-31T01:19:47;20.70;42.30
24636;DHT22;12772;49.794;10.024;2023-07-31T01:24:21;20.70;42.50
24636;DHT22;12772;49.794;10.024;2023-07-31T01:32:49;20.60;43.20
24636;DHT22;12772;49.794;10.024;2023-07-31T01:36:51;20.50;43.50
24636;DHT22;12772;49.794;10.024;2023-07-31T01:40:53;20.50;43.90
24636;DHT22;12772;49.794;10.024;2023-07-31T01:44:55;20.40;44.00
24636;DHT22;12772;49.794;10.024;2023-07-31T01:48:57;20.30;44.10
24636;DHT22;12772;49.794;10.024;2023-07-31T01:52:59;20.30;44.30
24636;DHT22;12772;49.794;10.024;2023-07-31T01:57:01;20.30;44.30
24636;DHT22;12772;49.794;10.024;2023-07-31T02:01:03;20.20;44.50
24636;DHT22;12772;49.794;10.024;2023-07-31T02:05:06;20.10;44.90
24636;DHT22;12772;49.794;10.024;2023-07-31T02:09:08;20.00;45.10
24636;DHT22;12772;49.794;10.024;2023-07-31T02:13:10;20.00;45.30
24636;DHT22;12772;49.794;10.024;2023-07-31T02:17:12;20.00;45.50
24636;DHT22;12772;49.794;10.024;2023-07-31T02:21:14;20.00;46.30
24636;DHT22;12772;49.794;10.024;2023-07-31T02:25:16;20.00;45.60
24636;DHT22;12772;49.794;10.024;2023-07-31T02:29:18;19.90;45.50
24636;DHT22;12772;49.794;10.024;2023-07-31T02:33:20;19.90;45.70
24636;DHT22;12772;49.794;10.024;2023-07-31T02:37:22;19.90;45.80
24636;DHT22;12772;49.794;10.024;2023-07-31T02:41:24;19.90;46.00
24636;DHT22;12772;49.794;10.024;2023-07-31T02:45:26;19.80;46.00
24636;DHT22;12772;49.794;10.024;2023-07-31T02:49:28;19.80;46.10
24636;DHT22;12772;49.794;10.024;2023-07-31T02:53:30;19.80;46.30
24636;DHT22;12772;49.794;10.024;2023-07-31T02:57:32;19.80;46.30
24636;DHT22;12772;49.794;10.024;2023-07-31T03:01:34;19.70;46.20
24636;DHT22;12772;49.794;10.024;2023-07-31T03:05:36;19.70;46.30
24636;DHT22;12772;49.794;10.024;2023-07-31T03:09:38;19.80;46.40
24636;DHT22;12772;49.794;10.024;2023-07-31T03:13:40;19.70;46.40
24636;DHT22;12772;49.794;10.024;2023-07-31T03:17:42;19.70;46.60
24636;DHT22;12772;49.794;10.024;2023-07-31T03:21:44;19.70;47.30
24636;DHT22;12772;49.794;10.024;2023-07-31T03:25:57;19.70;46.70
24636;DHT22;12772;49.794;10.024;2023-07-31T03:29:59;19.80;46.60
24636;DHT22;12772;49.794;10.024;2023-07-31T03:34:01;19.80;46.50
24636;DHT22;12772;49.794;10.024;2023-07-31T03:38:03;19.80;46.50
24636;DHT22;12772;49.794;10.024;2023-07-31T03:42:06;19.80;46.60
24636;DHT22;12772;49.794;10.024;2023-07-31T03:46:08;19.80;46.70
24636;DHT22;12772;49.794;10.024;2023-07-31T03:50:10;19.80;46.80
24636;DHT22;12772;49.794;10.024;2023-07-31T03:54:12;19.70;46.70
24636;DHT22;12772;49.794;10.024;2023-07-31T03:58:14;19.70;46.70
24636;DHT22;12772;49.794;10.024;2023-07-31T04:02:16;19.70;47.00
24636;DHT22;12772;49.794;10.024;2023-07-31T04:06:19;19.70;47.50
24636;DHT22;12772;49.794;10.024;2023-07-31T04:10:21;19.70;46.90
24636;DHT22;12772;49.794;10.024;2023-07-31T04:14:23;19.70;47.00
24636;DHT22;12772;49.794;10.024;2023-07-31T04:18:25;19.70;46.90
24636;DHT22;12772;49.794;10.024;2023-07-31T04:22:27;19.60;47.10
24636;DHT22;12772;49.794;10.024;2023-07-31T04:26:30;19.70;46.90
24636;DHT22;12772;49.794;10.024;2023-07-31T04:30:32;19.70;46.80
24636;DHT22;12772;49.794;10.024;2023-07-31T04:34:34;19.70;46.80
24636;DHT22;12772;49.794;10.024;2023-07-31T04:38:36;19.60;46.90
24636;DHT22;12772;49.794;10.024;2023-07-31T04:42:38;19.70;47.10
24636;DHT22;12772;49.794;10.024;2023-07-31T04:46:40;19.70;47.00
24636;DHT22;12772;49.794;10.024;2023-07-31T04:50:42;19.70;47.10
24636;DHT22;12772;49.794;10.024;2023-07-31T04:54:44;19.70;46.90
24636;DHT22;12772;49.794;10.024;2023-07-31T04:58:46;19.70;46.90
24636;DHT22;12772;49.794;10.024;2023-07-31T05:02:48;19.70;46.90
24636;DHT22;12772;49.794;10.024;2023-07-31T05:06:50;19.70;46.70
24636;DHT22;12772;49.794;10.024;2023-07-31T05:10:52;19.80;46.60
24636;DHT22;12772;49.794;10.024;2023-07-31T05:14:54;19.80;46.70
24636;DHT22;12772;49.794;10.024;2023-07-31T05:18:55;19.90;46.90
24636;DHT22;12772;49.794;10.024;2023-07-31T05:22:57;19.90;46.90
24636;DHT22;12772;49.794;10.024;2023-07-31T05:26:59;19.90;46.90
24636;DHT22;12772;49.794;10.024;2023-07-31T05:31:03;19.90;46.70
24636;DHT22;12772;49.794;10.024;2023-07-31T05:35:05;19.90;46.70
24636;DHT22;12772;49.794;10.024;2023-07-31T05:39:07;20.00;46.60
24636;DHT22;12772;49.794;10.024;2023-07-31T05:43:09;20.00;46.50
24636;DHT22;12772;49.794;10.024;2023-07-31T05:47:11;20.00;46.50
24636;DHT22;12772;49.794;10.024;2023-07-31T05:51:13;20.00;46.50
24636;DHT22;12772;49.794;10.024;2023-07-31T05:55:15;20.10;46.30
24636;DHT22;12772;49.794;10.024;2023-07-31T05:59:18;20.10;46.00
24636;DHT22;12772;49.794;10.024;2023-07-31T06:03:20;20.10;46.10
24636;DHT22;12772;49.794;10.024;2023-07-31T06:07:22;20.10;45.90
24636;DHT22;12772;49.794;10.024;2023-07-31T06:11:24;20.20;45.80
24636;DHT22;12772;49.794;10.024;2023-07-31T06:15:26;20.30;45.60
24636;DHT22;12772;49.794;10.024;2023-07-31T06:19:28;20.30;45.40
24636;DHT22;12772;49.794;10.024;2023-07-31T06:23:30;20.40;45.30
24636;DHT22;12772;49.794;10.024;2023-07-31T06:27:32;20.50;44.90
24636;DHT22;12772;49.794;10.024;2023-07-31T06:31:34;20.50;44.70
24636;DHT22;12772;49.794;10.024;2023-07-31T06:35:36;20.50;44.60
24636;DHT22;12772;49.794;10.024;2023-07-31T06:39:38;20.50;44.70
24636;DHT22;12772;49.794;10.024;2023-07-31T06:43:40;20.60;44.60
24636;DHT22;12772;49.794;10.024;2023-07-31T06:47:42;20.60;44.70
24636;DHT22;12772;49.794;10.024;2023-07-31T06:51:44;20.70;44.50
24636;DHT22;12772;49.794;10.024;2023-07-31T06:55:46;20.70;44.20
24636;DHT22;12772;49.794;10.024;2023-07-31T06:59:49;20.70;44.30
24636;DHT22;12772;49.794;10.024;2023-07-31T07:03:51;20.70;44.60
24636;DHT22;12772;49.794;10.024;2023-07-31T07:07:53;20.70;44.60
24636;DHT22;12772;49.794;10.024;2023-07-31T07:11:55;20.70;44.70
24636;DHT22;12772;49.794;10.024;2023-07-31T07:15:57;20.80;44.60
24636;DHT22;12772;49.794;10.024;2023-07-31T07:19:59;20.90;44.50
24636;DHT22;12772;49.794;10.024;2023-07-31T07:24:01;20.90;44.50
24636;DHT22;12772;49.794;10.024;2023-07-31T07:28:03;21.00;44.40
24636;DHT22;12772;49.794;10.024;2023-07-31T07:32:06;21.00;44.30
24636;DHT22;12772;49.794;10.024;2023-07-31T07:36:08;21.10;44.10
24636;DHT22;12772;49.794;10.024;2023-07-31T07:40:10;21.10;44.10
24636;DHT22;12772;49.794;10.024;2023-07-31T07:44:13;21.20;43.90
24636;DHT22;12772;49.794;10.024;2023-07-31T07:48:15;21.20;43.70
24636;DHT22;12772;49.794;10.024;2023-07-31T07:52:20;21.20;43.90
24636;DHT22;12772;49.794;10.024;2023-07-31T07:56:23;21.40;44.40
24636;DHT22;12772;49.794;10.024;2023-07-31T08:00:25;21.50;44.10
24636;DHT22;12772;49.794;10.024;2023-07-31T08:04:27;21.60;43.90
24636;DHT22;12772;49.794;10.024;2023-07-31T08:08:29;21.80;43.30
24636;DHT22;12772;49.794;10.024;2023-07-31T08:12:31;21.90;43.40
24636;DHT22;12772;49.794;10.024;2023-07-31T08:16:33;22.00;43.40
24636;DHT22;12772;49.794;10.024;2023-07-31T08:20:35;22.10;43.60
24636;DHT22;12772;49.794;10.024;2023-07-31T08:24:37;22.10;43.60
24636;DHT22;12772;49.794;10.024;2023-07-31T08:28:39;22.10;43.60
24636;DHT22;12772;49.794;10.024;2023-07-31T08:32:41;22.10;43.60
24636;DHT22;12772;49.794;10.024;2023-07-31T08:36:43;22.00;43.40
24636;DHT22;12772;49.794;10.024;2023-07-31T08:40:45;22.00;43.40
24636;DHT22;12772;49.794;10.024;2023-07-31T08:44:47;22.00;43.40
24636;DHT22;12772;49.794;10.024;2023-07-31T08:48:51;22.10;43.60
24636;DHT22;12772;49.794;10.024;2023-07-31T08:52:54;22.20;43.70
24636;DHT22;12772;49.794;10.024;2023-07-31T08:56:57;22.30;43.80
24636;DHT22;12772;49.794;10.024;2023-07-31T09:01:04;22.50;43.30
24636;DHT22;12772;49.794;10.024;2023-07-31T09:05:07;22.50;43.20
24636;DHT22;12772;49.794;10.024;2023-07-31T09:09:09;22.50;43.00
24636;DHT22;12772;49.794;10.024;2023-07-31T09:13:12;22.60;42.90
24636;DHT22;12772;49.794;10.024;2023-07-31T09:17:14;22.70;42.90
24636;DHT22;12772;49.794;10.024;2023-07-31T09:21:16;22.70;42.60
24636;DHT22;12772;49.794;10.024;2023-07-31T09:25:25;22.80;42.90
24636;DHT22;12772;49.794;10.024;2023-07-31T09:29:28;22.90;42.10
24636;DHT22;12772;49.794;10.024;2023-07-31T09:33:31;23.00;42.00
24636;DHT22;12772;49.794;10.024;2023-07-31T09:37:33;23.10;41.40
24636;DHT22;12772;49.794;10.024;2023-07-31T09:41:39;23.20;40.80
24636;DHT22;12772;49.794;10.024;2023-07-31T09:45:42;23.20;40.80
24636;DHT22;12772;49.794;10.024;2023-07-31T09:49:47;23.30;40.60
24636;DHT22;12772;49.794;10.024;2023-07-31T09:53:52;23.50;40.60
24636;DHT22;12772;49.794;10.024;2023-07-31T09:57:55;23.60;39.90
24636;DHT22;12772;49.794;10.024;2023-07-31T10:01:58;23.80;39.90
24636;DHT22;12772;49.794;10.024;2023-07-31T10:06:02;23.80;38.70
24636;DHT22;12772;49.794;10.024;2023-07-31T10:10:05;23.80;39.10
24636;DHT22;12772;49.794;10.024;2023-07-31T10:14:09;23.80;38.30
24636;DHT22;12772;49.794;10.024;2023-07-31T10:18:11;23.70;38.40
24636;DHT22;12772;49.794;10.024;2023-07-31T10:22:15;23.70;39.00
24636;DHT22;12772;49.794;10.024;2023-07-31T10:26:19;23.80;38.90
24636;DHT22;12772;49.794;10.024;2023-07-31T10:30:26;23.80;38.30
24636;DHT22;12772;49.794;10.024;2023-07-31T10:34:29;23.80;38.30
24636;DHT22;12772;49.794;10.024;2023-07-31T10:38:31;23.80;39.30
24636;DHT22;12772;49.794;10.024;2023-07-31T10:42:35;23.80;39.40
24636;DHT22;12772;49.794;10.024;2023-07-31T10:46:37;23.70;39.00
24636;DHT22;12772;49.794;10.024;2023-07-31T10:50:50;23.60;39.20
24636;DHT22;12772;49.794;10.024;2023-07-31T10:55:56;23.70;39.10
24636;DHT22;12772;49.794;10.024;2023-07-31T10:59:36;23.70;39.10
24636;DHT22;12772;49.794;10.024;2023-07-31T11:03:46;23.70;38.60
24636;DHT22;12772;49.794;10.024;2023-07-31T11:07:49;23.80;38.80
24636;DHT22;12772;49.794;10.024;2023-07-31T11:11:51;23.90;38.50
24636;DHT22;12772;49.794;10.024;2023-07-31T11:15:54;24.00;38.60
24636;DHT22;12772;49.794;10.024;2023-07-31T11:19:56;24.10;38.70
24636;DHT22;12772;49.794;10.024;2023-07-31T11:23:58;24.40;37.40
24636;DHT22;12772;49.794;10.024;2023-07-31T11:28:11;24.50;37.00
24636;DHT22;12772;49.794;10.024;2023-07-31T11:32:17;24.60;36.40
24636;DHT22;12772;49.794;10.024;2023-07-31T11:36:20;24.70;36.70
24636;DHT22;12772;49.794;10.024;2023-07-31T11:40:22;24.70;35.60
24636;DHT22;12772;49.794;10.024;2023-07-31T11:44:38;24.70;35.10
24636;DHT22;12772;49.794;10.024;2023-07-31T11:48:40;24.70;35.60
24636;DHT22;12772;49.794;10.024;2023-07-31T11:52:44;24.70;35.70
24636;DHT22;12772;49.794;10.024;2023-07-31T11:56:47;24.80;34.70
24636;DHT22;12772;49.794;10.024;2023-07-31T12:00:51;24.70;34.90
24636;DHT22;12772;49.794;10.024;2023-07-31T12:04:53;24.70;35.10
24636;DHT22;12772;49.794;10.024;2023-07-31T12:09:02;24.70;35.00
24636;DHT22;12772;49.794;10.024;2023-07-31T12:13:06;24.60;35.30
24636;DHT22;12772;49.794;10.024;2023-07-31T12:17:09;24.60;35.40
24636;DHT22;12772;49.794;10.024;2023-07-31T12:21:11;24.70;35.60
24636;DHT22;12772;49.794;10.024;2023-07-31T12:25:16;24.80;35.20
24636;DHT22;12772;49.794;10.024;2023-07-31T12:29:18;24.90;35.00
24636;DHT22;12772;49.794;10.024;2023-07-31T12:33:20;24.90;34.30
24636;DHT22;12772;49.794;10.024;2023-07-31T12:37:22;24.90;34.40
24636;DHT22;12772;49.794;10.024;2023-07-31T12:41:24;24.90;34.60
24636;DHT22;12772;49.794;10.024;2023-07-31T12:45:28;24.90;34.10
24636;DHT22;12772;49.794;10.024;2023-07-31T12:49:30;24.90;34.30
24636;DHT22;12772;49.794;10.024;2023-07-31T12:53:32;25.00;34.50
24636;DHT22;12772;49.794;10.024;2023-07-31T12:57:34;25.20;34.30
24636;DHT22;12772;49.794;10.024;2023-07-31T13:01:36;25.30;33.60
24636;DHT22;12772;49.794;10.024;2023-07-31T13:05:38;25.30;32.90
24636;DHT22;12772;49.794;10.024;2023-07-31T13:09:40;25.30;33.30
24636;DHT22;12772;49.794;10.024;2023-07-31T13:13:42;25.20;35.20
24636;DHT22;12772;49.794;10.024;2023-07-31T13:17:46;25.20;37.50
24636;DHT22;12772;49.794;10.024;2023-07-31T13:21:48;24.90;38.20
24636;DHT22;12772;49.794;10.024;2023-07-31T13:25:50;24.70;38.70
24636;DHT22;12772;49.794;10.024;2023-07-31T13:29:52;24.50;38.50
24636;DHT22;12772;49.794;10.024;2023-07-31T13:33:54;24.40;38.60
24636;DHT22;12772;49.794;10.024;2023-07-31T13:37:56;24.40;38.10
24636;DHT22;12772;49.794;10.024;2023-07-31T13:41:58;24.40;37.20
24636;DHT22;12772;49.794;10.024;2023-07-31T13:46:00;24.40;36.90
24636;DHT22;12772;49.794;10.024;2023-07-31T13:50:07;24.40;36.90
24636;DHT22;12772;49.794;10.024;2023-07-31T13:54:09;24.50;36.10
24636;DHT22;12772;49.794;10.024;2023-07-31T13:58:12;24.40;35.90
24636;DHT22;12772;49.794;10.024;2023-07-31T14:02:14;24.40;36.10
24636;DHT22;12772;49.794;10.024;2023-07-31T14:06:16;24.40;36.20
24636;DHT22;12772;49.794;10.024;2023-07-31T14:10:18;24.40;36.50
24636;DHT22;12772;49.794;10.024;2023-07-31T14:14:20;24.40;36.40
24636;DHT22;12772;49.794;10.024;2023-07-31T14:18:22;24.50;36.40
24636;DHT22;12772;49.794;10.024;2023-07-31T14:22:30;24.40;35.90
24636;DHT22;12772;49.794;10.024;2023-07-31T14:26:34;24.30;36.40
24636;DHT22;12772;49.794;10.024;2023-07-31T14:30:36;24.20;36.60
24636;DHT22;12772;49.794;10.024;2023-07-31T14:34:38;24.20;37.00
24636;DHT22;12772;49.794;10.024;2023-07-31T14:38:40;24.20;37.10
24636;DHT22;12772;49.794;10.024;2023-07-31T14:42:42;24.20;37.00
24636;DHT22;12772;49.794;10.024;2023-07-31T14:46:44;24.20;37.80
24636;DHT22;12772;49.794;10.024;2023-07-31T14:50:46;24.20;37.30
24636;DHT22;12772;49.794;10.024;2023-07-31T14:54:48;24.20;37.40
24636;DHT22;12772;49.794;10.024;2023-07-31T14:58:50;24.20;37.30
24636;DHT22;12772;49.794;10.024;2023-07-31T15:02:52;24.20;37.50
24636;DHT22;12772;49.794;10.024;2023-07-31T15:06:55;24.20;37.70
24636;DHT22;12772;49.794;10.024;2023-07-31T15:10:57;24.20;37.70
24636;DHT22;12772;49.794;10.024;2023-07-31T15:14:59;24.20;38.10
24636;DHT22;12772;49.794;10.024;2023-07-31T15:19:01;24.10;38.10
24636;DHT22;12772;49.794;10.024;2023-07-31T15:23:03;24.10;38.40
24636;DHT22;12772;49.794;10.024;2023-07-31T15:27:05;24.10;38.70
24636;DHT22;12772;49.794;10.024;2023-07-31T15:31:09;24.10;38.70
24636;DHT22;12772;49.794;10.024;2023-07-31T15:35:11;24.10;38.70
24636;DHT22;12772;49.794;10.024;2023-07-31T15:39:13;24.10;38.70
24636;DHT22;12772;49.794;10.024;2023-07-31T15:43:19;24.10;38.70
24636;DHT22;12772;49.794;10.024;2023-07-31T15:47:22;24.00;38.80
24636;DHT22;12772;49.794;10.024;2023-07-31T15:51:24;24.00;39.00
24636;DHT22;12772;49.794;10.024;2023-07-31T15:55:26;24.00;39.00
24636;DHT22;12772;49.794;10.024;2023-07-31T15:59:28;24.00;39.40
24636;DHT22;12772;49.794;10.024;2023-07-31T16:03:30;24.00;39.20
24636;DHT22;12772;49.794;10.024;2023-07-31T16:07:32;24.00;39.20
24636;DHT22;12772;49.794;10.024;2023-07-31T16:11:34;24.10;39.60
24636;DHT22;12772;49.794;10.024;2023-07-31T16:15:36;24.10;39.50
24636;DHT22;12772;49.794;10.024;2023-07-31T16:19:38;24.10;39.40
24636;DHT22;12772;49.794;10.024;2023-07-31T16:23:40;24.10;39.50
24636;DHT22;12772;49.794;10.024;2023-07-31T16:27:42;24.10;39.30
24636;DHT22;12772;49.794;10.024;2023-07-31T16:31:44;24.10;39.40
24636;DHT22;12772;49.794;10.024;2023-07-31T16:35:46;24.00;39.40
24636;DHT22;12772;49.794;10.024;2023-07-31T16:39:48;24.00;39.70
24636;DHT22;12772;49.794;10.024;2023-07-31T16:43:52;23.90;39.70
24636;DHT22;12772;49.794;10.024;2023-07-31T16:47:54;23.90;39.80
24636;DHT22;12772;49.794;10.024;2023-07-31T16:51:57;23.90;39.80
24636;DHT22;12772;49.794;10.024;2023-07-31T16:55:58;23.90;39.80
24636;DHT22;12772;49.794;10.024;2023-07-31T17:00:01;23.90;40.00
24636;DHT22;12772;49.794;10.024;2023-07-31T17:04:03;23.90;40.00
24636;DHT22;12772;49.794;10.024;2023-07-31T17:08:05;23.80;40.10
24636;DHT22;12772;49.794;10.024;2023-07-31T17:12:07;23.70;40.20
24636;DHT22;12772;49.794;10.024;2023-07-31T17:16:09;23.70;40.60
24636;DHT22;12772;49.794;10.024;2023-07-31T17:20:11;23.60;40.70
24636;DHT22;12772;49.794;10.024;2023-07-31T17:24:13;23.60;40.90
24636;DHT22;12772;49.794;10.024;2023-07-31T17:28:15;23.60;40.90
24636;DHT22;12772;49.794;10.024;2023-07-31T17:32:17;23.60;41.00
24636;DHT22;12772;49.794;10.024;2023-07-31T17:36:21;23.60;41.10
24636;DHT22;12772;49.794;10.024;2023-07-31T17:40:23;23.60;41.10
24636;DHT22;12772;49.794;10.024;2023-07-31T17:44:25;23.60;41.10
24636;DHT22;12772;49.794;10.024;2023-07-31T17:48:27;23.60;41.10
24636;DHT22;12772;49.794;10.024;2023-07-31T17:52:29;23.60;41.20
24636;DHT22;12772;49.794;10.024;2023-07-31T17:56:31;23.60;41.20
24636;DHT22;12772;49.794;10.024;2023-07-31T18:00:34;23.50;41.20
24636;DHT22;12772;49.794;10.024;2023-07-31T18:04:37;23.50;41.50
24636;DHT22;12772;49.794;10.024;2023-07-31T18:08:39;23.50;41.70
24636;DHT22;12772;49.794;10.024;2023-07-31T18:12:41;23.50;41.90
24636;DHT22;12772;49.794;10.024;2023-07-31T18:16:43;23.50;42.70
24636;DHT22;12772;49.794;10.024;2023-07-31T18:20:45;23.40;43.30
24636;DHT22;12772;49.794;10.024;2023-07-31T18:24:47;23.40;44.20
24636;DHT22;12772;49.794;10.024;2023-07-31T18:28:49;23.40;44.10
24636;DHT22;12772;49.794;10.024;2023-07-31T18:32:51;23.30;44.40
24636;DHT22;12772;49.794;10.024;2023-07-31T18:36:55;23.30;45.00
24636;DHT22;12772;49.794;10.024;2023-07-31T18:40:57;23.30;45.00
24636;DHT22;12772;49.794;10.024;2023-07-31T18:44:59;23.30;44.90
24636;DHT22;12772;49.794;10.024;2023-07-31T18:49:01;23.20;44.80
24636;DHT22;12772;49.794;10.024;2023-07-31T18:53:03;23.20;44.80
24636;DHT22;12772;49.794;10.024;2023-07-31T18:57:06;23.10;45.40
24636;DHT22;12772;49.794;10.024;2023-07-31T19:01:08;23.00;44.60
24636;DHT22;12772;49.794;10.024;2023-07-31T19:05:10;23.00;44.60
24636;DHT22;12772;49.794;10.024;2023-07-31T19:09:12;22.90;44.50
24636;DHT22;12772;49.794;10.024;2023-07-31T19:13:14;22.90;44.50
24636;DHT22;12772;49.794;10.024;2023-07-31T19:17:16;22.80;45.10
24636;DHT22;12772;49.794;10.024;2023-07-31T19:21:18;22.70;45.90
24636;DHT22;12772;49.794;10.024;2023-07-31T19:25:20;22.70;46.80
24636;DHT22;12772;49.794;10.024;2023-07-31T19:29:22;22.70;47.60
24636;DHT22;12772;49.794;10.024;2023-07-31T19:33:24;22.60;48.60
24636;DHT22;12772;49.794;10.024;2023-07-31T19:37:26;22.50;50.00
24636;DHT22;12772;49.794;10.024;2023-07-31T19:41:29;22.30;51.00
24636;DHT22;12772;49.794;10.024;2023-07-31T19:45:31;22.10;52.00
24636;DHT22;12772;49.794;10.024;2023-07-31T19:49:35;22.00;52.90
24636;DHT22;12772;49.794;10.024;2023-07-31T19:53:37;21.90;54.30
24636;DHT22;12772;49.794;10.024;2023-07-31T19:57:39;21.70;54.60
24636;DHT22;12772;49.794;10.024;2023-07-31T20:01:41;21.60;55.40
24636;DHT22;12772;49.794;10.024;2023-07-31T20:05:43;21.60;56.00
24636;DHT22;12772;49.794;10.024;2023-07-31T20:09:49;21.60;56.40
24636;DHT22;12772;49.794;10.024;2023-07-31T20:13:51;21.50;56.70
24636;DHT22;12772;49.794;10.024;2023-07-31T20:17:53;21.50;56.70
24636;DHT22;12772;49.794;10.024;2023-07-31T20:21:55;21.40;56.60
24636;DHT22;12772;49.794;10.024;2023-07-31T20:25:58;21.40;57.30
24636;DHT22;12772;49.794;10.024;2023-07-31T20:30:00;21.30;57.60
24636;DHT22;12772;49.794;10.024;2023-07-31T20:34:02;21.20;58.50
24636;DHT22;12772;49.794;10.024;2023-07-31T20:38:07;21.10;59.20
24636;DHT22;12772;49.794;10.024;2023-07-31T20:42:09;21.10;59.80
24636;DHT22;12772;49.794;10.024;2023-07-31T20:46:15;21.10;59.80
24636;DHT22;12772;49.794;10.024;2023-07-31T20:50:17;21.10;59.80
24636;DHT22;12772;49.794;10.024;2023-07-31T20:54:19;21.10;59.80
24636;DHT22;12772;49.794;10.024;2023-07-31T20:58:21;21.10;59.80
24636;DHT22;12772;49.794;10.024;2023-07-31T21:02:23;21.10;60.00
24636;DHT22;12772;49.794;10.024;2023-07-31T21:06:25;21.20;60.00
24636;DHT22;12772;49.794;10.024;2023-07-31T21:10:27;21.10;60.10
24636;DHT22;12772;49.794;10.024;2023-07-31T21:14:29;21.10;60.20
24636;DHT22;12772;49.794;10.024;2023-07-31T21:18:31;21.10;60.20
24636;DHT22;12772;49.794;10.024;2023-07-31T21:22:33;21.10;60.10
24636;DHT22;12772;49.794;10.024;2023-07-31T21:26:35;21.10;60.10
24636;DHT22;12772;49.794;10.024;2023-07-31T21:30:37;21.10;60.20
24636;DHT22;12772;49.794;10.024;2023-07-31T21:34:40;21.00;60.40
24636;DHT22;12772;49.794;10.024;2023-07-31T21:38:43;21.00;60.40
24636;DHT22;12772;49.794;10.024;2023-07-31T21:42:48;20.90;60.40
24636;DHT22;12772;49.794;10.024;2023-07-31T21:46:50;21.00;60.80
24636;DHT22;12772;49.794;10.024;2023-07-31T21:50:52;20.90;61.60
24636;DHT22;12772;49.794;10.024;2023-07-31T21:54:54;20.80;61.80
24636;DHT22;12772;49.794;10.024;2023-07-31T21:58:57;20.80;61.80
24636;DHT22;12772;49.794;10.024;2023-07-31T22:02:59;20.80;62.40
24636;DHT22;12772;49.794;10.024;2023-07-31T22:07:01;20.80;62.50
24636;DHT22;12772;49.794;10.024;2023-07-31T22:11:03;20.70;62.60
24636;DHT22;12772;49.794;10.024;2023-07-31T22:15:06;20.70;63.20
24636;DHT22;12772;49.794;10.024;2023-07-31T22:19:08;20.70;63.60
24636;DHT22;12772;49.794;10.024;2023-07-31T22:23:10;20.70;63.90
24636;DHT22;12772;49.794;10.024;2023-07-31T22:27:14;20.70;64.00
24636;DHT22;12772;49.794;10.024;2023-07-31T22:31:16;20.60;64.10
24636;DHT22;12772;49.794;10.024;2023-07-31T22:35:18;20.60;64.20
24636;DHT22;12772;49.794;10.024;2023-07-31T22:39:20;20.60;64.50
24636;DHT22;12772;49.794;10.024;2023-07-31T22:43:22;20.60;64.60
24636;DHT22;12772;49.794;10.024;2023-07-31T22:47:24;20.60;64.70
24636;DHT22;12772;49.794;10.024;2023-07-31T22:51:26;20.60;64.80
24636;DHT22;12772;49.794;10.024;2023-07-31T22:55:30;20.70;65.50
24636;DHT22;12772;49.794;10.024;2023-07-31T22:59:32;20.70;65.40
24636;DHT22;12772;49.794;10.024;2023-07-31T23:03:34;20.60;65.70
24636;DHT22;12772;49.794;10.024;2023-07-31T23:07:36;20.60;66.20
24636;DHT22;12772;49.794;10.024;2023-07-31T23:11:38;20.60;66.20
24636;DHT22;12772;49.794;10.024;2023-07-31T23:15:40;20.60;66.20
24636;DHT22;12772;49.794;10.024;2023-07-31T23:19:46;20.50;66.60
24636;DHT22;12772;49.794;10.024;2023-07-31T23:23:48;20.50;66.80
24636;DHT22;12772;49.794;10.024;2023-07-31T23:27:50;20.50;67.10
24636;DHT22;12772;49.794;10.024;2023-07-31T23:31:52;20.50;67.30
24636;DHT22;12772;49.794;10.024;2023-07-31T23:35:54;20.50;67.70
24636;DHT22;12772;49.794;10.024;2023-07-31T23:39:56;20.50;67.90
24636;DHT22;12772;49.794;10.024;2023-07-31T23:43:58;20.50;67.90
24636;DHT22;12772;49.794;10.024;2023-07-31T23:48:01;20.50;67.80
24636;DHT22;12772;49.794;10.024;2023-07-31T23:52:03;20.50;68.40
24636;DHT22;12772;49.794;10.024;2023-07-31T23:56:05;20.50;68.30
